Aérodrome de Figeac - Livernon

LFCF · Lot, Occitanie, 法国

罗盘
风向 的 风向 340° Aérodrome de Figeac - Livernon 11/29
风: 9 kt, 3 beaufort

6 kt

7 kt
改变
0 ft 1.000 2.000 3.000 4.000 5.000
Cloud Cloud Cloud Cloud Cloud Cloud
BKN 2.600
Cloud Cloud Cloud Cloud Cloud Cloud Cloud Cloud
OVC 3.100
METAR LFBE 271330Z AUTO 34009KT 9999 BKN026 OVC031 06/01 Q1020 NOSIG

METAR Aérodrome de Figeac - Livernon - LFCF

Aérodrome de Figeac - Livernon是,法国中的小机场。 该机场有一条跑道: 11/29. 该领域的国际民航组织标志是LFCF.

这份报告是针对2023年1月27日 14:30, 当地时间在Bergerac-Roumanière Airport进行的。

机场观察

风向为340°,速度为9 kt。

可见度为10 km 或者更多。

有碎云在2.600 ft的高度 和 乌云密布在3.100 ft的高度。 破损或更高的上限为2.600 ft。

温度为6 °C,阵风为1 °C。 露点为1 °C,相对湿度为71%。 海平面上的气压为1020 hPa (QNH)。

白天

今天,太阳从08:17升起,在17:53降落。 这适用于Aérodrome de Figeac - Livernon,世界夏令时可能有所不同。 当地时间与世界标准时间之间的时差为+1 小时。 当前,没有夏令时有效。

公司介绍

在这个机场,你可以找到飞行俱乐部。 本场上唯一已知的公司是Aéroclub de Figeac Livernon。

体会

到Vliegles.nl去找飞行课程,跳伞和其他飞行体验。 浏览页面,了解Aérodrome de Figeac - Livernon附近所有可用的活动。 你也可以使用搜索功能来寻找你所在地附近的特定飞行课程、跳伞或其他飞行体验。

跑道

Id 标题 侧风 逆风 侧风 %
11/29 111°-291° 7 kt 6 kt 75 %

逆风成分最大的方向会被突出显示,并用于横风计算。 这并不一定意味着这个方向在使用。

乌云

2.600 ft BKN 碎云
3.100 ft OVC 乌云密布

温度 & 天气

温度 6 °C
露点 1 °C
相对湿度 71%
风寒 1 °C
Kp-index 1 (0-9)

白天

日出
08:22
中午
13:10
日落
17:58 (3:19)

小工具

你想在你的网站上有一个关于Aérodrome de Figeac - Livernon的当前航空天气(METAR)的小部件吗?

显示HTML代码

我们和第三方通过cookies跟踪您在我们网站上的互联网行为。如果你继续,我们认为你同意我们的饼干政策